createdAt,value
2023-04-01T07:03:07.641Z,10.79
2023-04-01T07:06:12.515Z,10.86
2023-04-01T07:09:17.439Z,10.88
2023-04-01T07:12:32.312Z,11.07
2023-04-01T07:15:38.144Z,10.99
2023-04-01T07:18:45.299Z,11.22
2023-04-01T07:21:49.019Z,11.26
2023-04-01T07:24:52.548Z,11.31
2023-04-01T07:27:57.101Z,11.52
2023-04-01T07:31:05.966Z,11.53
2023-04-01T07:34:11.469Z,11.43
2023-04-01T07:37:16.393Z,11.64
2023-04-01T07:40:24.397Z,11.63
2023-04-01T07:43:35.449Z,11.64
2023-04-01T07:47:02.190Z,11.73
2023-04-01T07:50:12.404Z,11.87
2023-04-01T07:53:17.934Z,12.01
2023-04-01T07:56:23.264Z,12.18
2023-04-01T07:59:27.598Z,12.09
2023-04-01T08:02:36.936Z,12.51
2023-04-01T08:05:46.602Z,12.23
2023-04-01T08:08:59.091Z,12.60
2023-04-01T08:12:13.648Z,12.64
2023-04-01T08:15:37.037Z,12.39
2023-04-01T08:18:42.535Z,12.66
2023-04-01T08:21:48.238Z,12.66
2023-04-01T08:24:51.142Z,12.75
2023-04-01T08:27:58.206Z,12.63
2023-04-01T08:31:02.736Z,12.96
2023-04-01T08:34:07.047Z,13.06
2023-04-01T08:37:13.034Z,13.31
2023-04-01T08:40:27.839Z,13.19
2023-04-01T08:43:54.351Z,13.33
2023-04-01T08:47:26.272Z,13.36
2023-04-01T08:50:38.168Z,13.15
2023-04-01T08:53:52.674Z,13.53
2023-04-01T08:56:58.188Z,13.07
2023-04-01T09:00:06.561Z,13.05
2023-04-01T09:03:37.748Z,13.19
2023-04-01T09:06:45.555Z,13.06
2023-04-01T09:10:07.454Z,12.84
2023-04-01T09:13:30.065Z,12.98
2023-04-01T09:16:46.269Z,12.80
2023-04-01T09:20:20.975Z,12.89
2023-04-01T09:23:49.677Z,13.26
2023-04-01T09:27:04.536Z,13.33
2023-04-01T09:30:42.122Z,13.54
2023-04-01T09:34:24.198Z,13.60
2023-04-01T09:37:50.238Z,13.54
2023-04-01T09:40:57.050Z,13.64
2023-04-01T09:44:04.320Z,13.37
2023-04-01T09:47:17.434Z,13.26
2023-04-01T09:50:31.550Z,13.50
2023-04-01T09:53:42.967Z,13.58
2023-04-01T09:57:19.416Z,13.64
2023-04-01T10:00:52.594Z,14.01
2023-04-01T10:04:31.425Z,13.98
2023-04-01T10:07:58.684Z,13.88
2023-04-01T10:11:32.190Z,13.79
2023-04-01T10:14:45.699Z,14.00
2023-04-01T10:18:06.116Z,13.99
2023-04-01T10:21:42.960Z,13.86
2023-04-01T10:25:11.883Z,13.94
